M I D A S
Marine Information and Data Acquisition System
Tripno 1196 of the Zeeleeuw from 2006-11-27 08:23:47 to 2006-11-27 14:41:10
Back to CruiseResearch ActivitiesStationsMapUnderway DataData graphs

EquipmentUnitsComment
TimeDGPSUTC
LatitudeDGPSDM.mWGS84
LongitudeDGPSDM.mWGS84
HeadingGyrodeg 
SOGDGPSknotsSpeed over ground
COGDGPSdegCourse over ground
DepthEcho soundermeters200 kHz
Missing or incorrect values are displayed as -999
Navigation data collected by the RV Zeeleeuw from 2006-11-27 06:59:38 to 2006-11-27 14:41:10
Time Latitude Longitude Heading SOG COG Depth
2006-11-27 07:00:43 51°13.598 2°56.095 127.5 -999 312 -999
2006-11-27 07:01:43 51°13.598 2°56.094 125.9 0.1 136 -999
2006-11-27 07:02:43 51°13.598 2°56.093 124.8 0.1 131 -999
2006-11-27 07:03:43 51°13.599 2°56.093 125.9 0.1 308 -999
2006-11-27 07:04:43 51°13.598 2°56.094 127.4 0.1 294 -999
2006-11-27 07:05:43 51°13.599 2°56.094 126.3 0.1 133 -999
2006-11-27 07:06:43 51°13.599 2°56.094 125.2 -999 304 -999
2006-11-27 07:07:43 51°13.599 2°56.094 126.6 0.2 307 -999
2006-11-27 07:08:43 51°13.599 2°56.095 127.8 0.1 294 -999
2006-11-27 07:09:43 51°13.599 2°56.094 125.8 0.1 127 -999
2006-11-27 07:10:43 51°13.599 2°56.094 125.7 -999 323 -999
2006-11-27 07:11:43 51°13.599 2°56.094 127.6 0.1 297 -999
2006-11-27 07:12:43 51°13.598 2°56.094 126.5 0.1 134 -999
2006-11-27 07:13:43 51°13.599 2°56.094 125.3 -999 199 -999
2006-11-27 07:14:43 51°13.598 2°56.094 127.3 0.1 312 -999
2006-11-27 07:15:43 51°13.598 2°56.094 126.1 -999 126 -999
2006-11-27 07:16:43 51°13.599 2°56.094 125.6 -999 142 -999
2006-11-27 07:17:43 51°13.598 2°56.094 126.4 -999 274 -999
2006-11-27 07:18:43 51°13.598 2°56.095 127.1 -999 182 -999
2006-11-27 07:19:43 51°13.599 2°56.095 126.4 -999 335 -999
2006-11-27 07:20:43 51°13.599 2°56.094 125.8 -999 224 -999
2006-11-27 07:21:43 51°13.598 2°56.095 127 -999 326 -999
2006-11-27 07:22:43 51°13.598 2°56.095 126.5 -999 159 -999
2006-11-27 07:23:43 51°13.599 2°56.095 126.3 -999 309 -999
2006-11-27 07:24:43 51°13.599 2°56.095 126.2 -999 289 -999
2006-11-27 07:25:43 51°13.599 2°56.095 126.3 -999 147 -999
2006-11-27 07:26:43 51°13.599 2°56.094 125.9 -999 250 -999
2006-11-27 07:27:43 51°13.599 2°56.094 126.4 -999 142 -999
2006-11-27 07:28:43 51°13.598 2°56.093 126.5 -999 228 -999
2006-11-27 07:29:43 51°13.598 2°56.093 126.6 -999 249 -999
2006-11-27 07:30:43 51°13.598 2°56.093 126.2 -999 321 -999
2006-11-27 07:31:43 51°13.597 2°56.092 126.1 -999 124 -999
2006-11-27 07:32:43 51°13.596 2°56.092 126 -999 63 -999
2006-11-27 07:33:43 51°13.596 2°56.092 126.1 -999 205 -999
2006-11-27 07:34:43 51°13.597 2°56.092 126.3 -999 168 -999
2006-11-27 07:35:43 51°13.597 2°56.092 126.2 -999 171 -999
2006-11-27 07:36:43 51°13.597 2°56.093 126.3 -999 352 -999
2006-11-27 07:37:43 51°13.597 2°56.093 126.4 -999 284 -999
2006-11-27 07:38:43 51°13.597 2°56.092 126.2 -999 292 -999
2006-11-27 07:39:43 51°13.598 2°56.093 126.2 -999 311 -999
2006-11-27 07:40:43 51°13.598 2°56.094 125.9 -999 209 -999
2006-11-27 07:41:43 51°13.598 2°56.094 125.9 -999 113 -999
2006-11-27 07:42:43 51°13.598 2°56.095 126.3 -999 323 -999
2006-11-27 07:43:43 51°13.598 2°56.095 126.3 -999 186 -999
2006-11-27 07:44:43 51°13.599 2°56.096 126.5 -999 306 -999
2006-11-27 07:45:43 51°13.599 2°56.095 125.5 -999 128 -999
2006-11-27 07:46:43 51°13.599 2°56.094 126 -999 319 -999
2006-11-27 07:47:43 51°13.599 2°56.094 126.2 -999 235 -999
2006-11-27 07:48:43 51°13.599 2°56.094 126 -999 236 -999
2006-11-27 07:49:43 51°13.599 2°56.095 125.7 -999 319 -999
2006-11-27 07:50:43 51°13.599 2°56.095 125.8 -999 327 -999
2006-11-27 07:51:43 51°13.598 2°56.093 125.9 -999 276 -999
2006-11-27 07:52:43 51°13.599 2°56.093 125.9 -999 345 -999
2006-11-27 07:53:43 51°13.599 2°56.094 125.9 -999 257 -999
2006-11-27 07:54:43 51°13.599 2°56.095 125.9 -999 84 -999
2006-11-27 07:55:43 51°13.598 2°56.095 126.2 -999 104 -999
2006-11-27 07:56:43 51°13.599 2°56.095 125.9 0.1 64 -999
2006-11-27 07:57:43 51°13.598 2°56.095 126 -999 36 -999
2006-11-27 07:58:43 51°13.598 2°56.095 126.4 -999 272 -999
2006-11-27 07:59:43 51°13.598 2°56.095 126.1 -999 299 -999
2006-11-27 08:00:39 51°13.598 2°56.095 126.4 -999 206 7.3
2006-11-27 08:01:39 51°13.598 2°56.095 126.1 -999 14 7.1
2006-11-27 08:02:39 51°13.599 2°56.095 126 -999 249 7.1
2006-11-27 08:03:39 51°13.599 2°56.095 125.9 -999 312 7
2006-11-27 08:04:39 51°13.599 2°56.096 125.7 -999 300 -999
2006-11-27 08:05:39 51°13.601 2°56.099 125.7 -999 41 6.9
2006-11-27 08:06:39 51°13.6 2°56.097 125.7 -999 87 6.9
2006-11-27 08:07:39 51°13.598 2°56.095 125.8 -999 285 6.9
2006-11-27 08:08:39 51°13.6 2°56.095 125.9 -999 28 7.3
2006-11-27 08:09:39 51°13.6 2°56.095 125.8 -999 325 5.3
2006-11-27 08:10:39 51°13.599 2°56.094 125.8 -999 348 -999
2006-11-27 08:11:39 51°13.599 2°56.094 125.3 -999 309 6.8
2006-11-27 08:12:39 51°13.599 2°56.094 125 0.1 119 6.9
2006-11-27 08:13:39 51°13.599 2°56.095 127.1 0.1 284 -999
2006-11-27 08:14:39 51°13.596 2°56.095 127.3 -999 45 -999
2006-11-27 08:15:39 51°13.596 2°56.095 127.2 -999 295 45.4
2006-11-27 08:16:39 51°13.594 2°56.095 127.2 -999 268 46.7
2006-11-27 08:17:39 51°13.595 2°56.096 127 -999 261 -999
2006-11-27 08:18:40 51°13.599 2°56.097 127.1 -999 338 7
2006-11-27 08:19:39 51°13.6 2°56.097 127 -999 298 51.3
2006-11-27 08:20:40 51°13.597 2°56.096 127.1 -999 200 -999
2006-11-27 08:21:39 51°13.598 2°56.097 127.2 -999 241 43.2
2006-11-27 08:22:39 51°13.599 2°56.097 127.3 -999 346 -999
2006-11-27 08:23:39 51°13.597 2°56.096 118.7 0.1 204 7.1
2006-11-27 08:24:39 51°13.598 2°56.089 112 1.3 296 7.1
2006-11-27 08:25:40 51°13.618 2°56.02 112.2 4 292 -999
2006-11-27 08:26:40 51°13.653 2°55.898 121.9 5.9 298 -999
2006-11-27 08:27:39 51°13.704 2°55.76 121.3 5.5 299 -999
2006-11-27 08:28:39 51°13.723 2°55.723 80.4 1.6 60 11.5
2006-11-27 08:29:40 51°13.723 2°55.713 45.7 1.9 233 -999
2006-11-27 08:30:39 51°13.737 2°55.697 0.1 3.7 351 11.3
2006-11-27 08:31:39 51°13.835 2°55.634 339.2 7.3 336 10.3
2006-11-27 08:32:39 51°13.94 2°55.556 340.4 6.6 336 10
2006-11-27 08:33:39 51°14.037 2°55.49 340.3 6.1 335 10.1
2006-11-27 08:34:39 51°14.131 2°55.418 338.3 7.2 333 10.5
2006-11-27 08:35:39 51°14.252 2°55.284 323.6 9.8 317 10.7
2006-11-27 08:36:39 51°14.367 2°55.074 315.5 10.7 311 10.2
2006-11-27 08:37:39 51°14.503 2°54.894 333.9 9.4 325 9.5
2006-11-27 08:38:39 51°14.62 2°54.772 339.5 9 333 9.2
2006-11-27 08:39:39 51°14.774 2°54.644 334.4 11.6 326 9
2006-11-27 08:40:39 51°14.95 2°54.455 334.7 13.3 327 8.6
2006-11-27 08:41:39 51°15.138 2°54.266 337.7 13.5 332 8.4
2006-11-27 08:42:39 51°15.336 2°54.084 334.7 13.9 327 9
2006-11-27 08:43:39 51°15.536 2°53.896 338.2 14.1 330 9.9
2006-11-27 08:44:39 51°15.737 2°53.704 337.6 14.1 330 10.3
2006-11-27 08:45:39 51°15.942 2°53.516 338.6 14.2 331 10.9
2006-11-27 08:46:39 51°16.147 2°53.332 337.7 14.1 330 11.3
2006-11-27 08:47:39 51°16.352 2°53.15 340.4 14 333 11.5
2006-11-27 08:48:39 51°16.56 2°52.979 340.4 14 333 11.3
2006-11-27 08:49:39 51°16.767 2°52.812 340.4 13.8 334 9.6
2006-11-27 08:50:39 51°16.976 2°52.663 347.1 13.9 341 9.6
2006-11-27 08:51:39 51°17.199 2°52.558 350.9 14 343 9.4
2006-11-27 08:52:39 51°17.424 2°52.466 357.4 14 351 9.9
2006-11-27 08:53:39 51°17.656 2°52.441 5.5 14 358 10.1
2006-11-27 08:54:39 51°17.883 2°52.495 22.3 13.8 16 10.1
2006-11-27 08:55:39 51°18.096 2°52.631 37 13.7 30 10.3
2006-11-27 08:56:39 51°18.268 2°52.868 52.7 13.6 47 10.6
2006-11-27 08:57:39 51°18.439 2°53.107 46.5 13.7 39 10.7
2006-11-27 08:58:39 51°18.615 2°53.34 47.7 13.8 38 10.9
2006-11-27 08:59:39 51°18.792 2°53.567 47.1 13.6 40 11.2
2006-11-27 09:00:39 51°18.968 2°53.797 46.9 13.8 40 11.3
2006-11-27 09:01:39 51°19.146 2°54.021 47.7 13.4 41 11.6
2006-11-27 09:02:39 51°19.322 2°54.249 46.9 13.7 39 11.7
2006-11-27 09:03:39 51°19.5 2°54.474 45.8 13.9 35 11.9
2006-11-27 09:04:39 51°19.676 2°54.702 48.3 13.7 38 12
2006-11-27 09:05:39 51°19.855 2°54.924 45.9 13.6 39 12.3
2006-11-27 09:06:39 51°20.028 2°55.154 47.7 13.6 42 12.3
2006-11-27 09:07:39 51°20.205 2°55.383 46 13.7 39 12.5
2006-11-27 09:08:39 51°20.384 2°55.607 46.7 13.8 41 12.6
2006-11-27 09:09:39 51°20.546 2°55.861 54.1 13.7 46 12.8
2006-11-27 09:10:39 51°20.705 2°56.118 50.8 13.5 44 12.9
2006-11-27 09:11:39 51°20.871 2°56.366 50.3 13.6 43 12.9
2006-11-27 09:12:39 51°21.034 2°56.617 51 13.6 45 13.1
2006-11-27 09:13:39 51°21.198 2°56.868 51.1 13.7 44 13.2
2006-11-27 09:14:39 51°21.335 2°57.07 52.3 8.5 47 13.5
2006-11-27 14:25:21 51°13.599 2°56.095 125.9 -999 178 -999
2006-11-27 14:26:21 51°13.6 2°56.095 125.7 0.1 204 -999
2006-11-27 14:27:21 51°13.601 2°56.096 125.6 0.1 217 -999
2006-11-27 14:31:51 51°13.6 2°56.096 125.8 0.1 209 -999
2006-11-27 14:32:51 51°13.6 2°56.095 125.8 -999 216 -999
2006-11-27 14:33:51 51°13.6 2°56.095 126.2 -999 306 -999
2006-11-27 14:34:51 51°13.6 2°56.095 126.2 -999 253 -999
2006-11-27 14:35:51 51°13.6 2°56.095 125.9 -999 265 -999
2006-11-27 14:36:51 51°13.601 2°56.094 125.8 -999 250 -999
2006-11-27 14:37:51 51°13.601 2°56.094 126.2 -999 210 -999
2006-11-27 14:38:51 51°13.601 2°56.094 125.5 -999 167 -999
2006-11-27 14:39:51 51°13.601 2°56.093 125.5 -999 192 -999
2006-11-27 14:40:51 51°13.6 2°56.094 126 0.1 141 -999